sensor_id;sensor_type;location;lat;lon;timestamp;P1;durP1;ratioP1;P2;durP2;ratioP2
59504;SDS011;45321;53.200;5.814;2022-12-18T00:01:01;87.47;;;40.08;;
59504;SDS011;45321;53.200;5.814;2022-12-18T00:03:31;92.20;;;40.58;;
59504;SDS011;45321;53.200;5.814;2022-12-18T00:05:58;91.35;;;41.05;;
59504;SDS011;45321;53.200;5.814;2022-12-18T00:08:24;92.30;;;41.42;;
59504;SDS011;45321;53.200;5.814;2022-12-18T00:10:50;85.88;;;39.65;;
59504;SDS011;45321;53.200;5.814;2022-12-18T00:13:15;89.40;;;40.90;;
59504;SDS011;45321;53.200;5.814;2022-12-18T00:15:41;97.63;;;41.95;;
59504;SDS011;45321;53.200;5.814;2022-12-18T00:18:07;85.95;;;40.25;;
59504;SDS011;45321;53.200;5.814;2022-12-18T00:20:36;94.00;;;42.78;;
59504;SDS011;45321;53.200;5.814;2022-12-18T00:23:03;93.20;;;40.17;;
59504;SDS011;45321;53.200;5.814;2022-12-18T00:25:31;89.68;;;42.42;;
59504;SDS011;45321;53.200;5.814;2022-12-18T00:27:58;95.32;;;41.28;;
59504;SDS011;45321;53.200;5.814;2022-12-18T00:30:24;93.03;;;41.60;;
59504;SDS011;45321;53.200;5.814;2022-12-18T00:32:49;89.03;;;41.97;;
59504;SDS011;45321;53.200;5.814;2022-12-18T00:35:15;89.90;;;40.78;;
59504;SDS011;45321;53.200;5.814;2022-12-18T00:37:41;98.45;;;44.60;;
59504;SDS011;45321;53.200;5.814;2022-12-18T00:40:07;86.32;;;40.55;;
59504;SDS011;45321;53.200;5.814;2022-12-18T00:42:33;90.90;;;40.63;;
59504;SDS011;45321;53.200;5.814;2022-12-18T00:45:17;91.68;;;42.03;;
59504;SDS011;45321;53.200;5.814;2022-12-18T00:47:43;92.13;;;41.40;;
59504;SDS011;45321;53.200;5.814;2022-12-18T00:50:08;89.95;;;40.85;;
59504;SDS011;45321;53.200;5.814;2022-12-18T00:52:34;95.65;;;41.05;;
59504;SDS011;45321;53.200;5.814;2022-12-18T00:55:00;90.03;;;40.85;;
59504;SDS011;45321;53.200;5.814;2022-12-18T00:57:26;87.22;;;41.10;;
59504;SDS011;45321;53.200;5.814;2022-12-18T00:59:51;88.38;;;41.70;;
59504;SDS011;45321;53.200;5.814;2022-12-18T01:02:17;92.13;;;39.85;;
59504;SDS011;45321;53.200;5.814;2022-12-18T01:04:43;88.00;;;42.00;;
59504;SDS011;45321;53.200;5.814;2022-12-18T01:07:08;92.45;;;39.50;;
59504;SDS011;45321;53.200;5.814;2022-12-18T01:09:34;87.88;;;41.45;;
59504;SDS011;45321;53.200;5.814;2022-12-18T01:12:00;85.88;;;38.58;;
59504;SDS011;45321;53.200;5.814;2022-12-18T01:14:25;89.50;;;40.05;;
59504;SDS011;45321;53.200;5.814;2022-12-18T01:16:51;89.07;;;41.90;;
59504;SDS011;45321;53.200;5.814;2022-12-18T01:19:17;86.78;;;40.70;;
59504;SDS011;45321;53.200;5.814;2022-12-18T01:21:43;82.78;;;38.63;;
59504;SDS011;45321;53.200;5.814;2022-12-18T01:24:09;82.57;;;39.22;;
59504;SDS011;45321;53.200;5.814;2022-12-18T01:26:36;83.30;;;38.33;;
59504;SDS011;45321;53.200;5.814;2022-12-18T01:29:02;83.70;;;39.10;;
59504;SDS011;45321;53.200;5.814;2022-12-18T01:31:29;83.63;;;40.15;;
59504;SDS011;45321;53.200;5.814;2022-12-18T01:33:57;85.60;;;38.92;;
59504;SDS011;45321;53.200;5.814;2022-12-18T01:36:29;77.47;;;36.90;;
59504;SDS011;45321;53.200;5.814;2022-12-18T01:39:07;86.78;;;37.40;;
59504;SDS011;45321;53.200;5.814;2022-12-18T01:41:36;89.13;;;39.22;;
59504;SDS011;45321;53.200;5.814;2022-12-18T01:47:26;82.80;;;37.15;;
59504;SDS011;45321;53.200;5.814;2022-12-18T01:49:55;83.70;;;36.17;;
59504;SDS011;45321;53.200;5.814;2022-12-18T01:52:23;90.15;;;40.97;;
59504;SDS011;45321;53.200;5.814;2022-12-18T01:54:53;94.53;;;38.95;;
59504;SDS011;45321;53.200;5.814;2022-12-18T01:57:20;83.90;;;36.08;;
59504;SDS011;45321;53.200;5.814;2022-12-18T01:59:47;79.28;;;34.28;;
59504;SDS011;45321;53.200;5.814;2022-12-18T02:02:17;83.78;;;38.03;;
59504;SDS011;45321;53.200;5.814;2022-12-18T02:04:45;84.60;;;37.22;;
59504;SDS011;45321;53.200;5.814;2022-12-18T02:09:50;88.18;;;36.83;;
59504;SDS011;45321;53.200;5.814;2022-12-18T02:15:30;90.18;;;38.33;;
59504;SDS011;45321;53.200;5.814;2022-12-18T02:17:59;80.90;;;34.67;;
59504;SDS011;45321;53.200;5.814;2022-12-18T02:20:39;78.90;;;35.55;;
59504;SDS011;45321;53.200;5.814;2022-12-18T02:31:21;85.20;;;36.83;;
59504;SDS011;45321;53.200;5.814;2022-12-18T02:33:50;76.40;;;32.80;;
59504;SDS011;45321;53.200;5.814;2022-12-18T02:36:20;77.68;;;34.25;;
59504;SDS011;45321;53.200;5.814;2022-12-18T02:38:48;83.30;;;36.72;;
59504;SDS011;45321;53.200;5.814;2022-12-18T02:41:15;87.90;;;36.50;;
59504;SDS011;45321;53.200;5.814;2022-12-18T02:43:46;86.18;;;37.13;;
59504;SDS011;45321;53.200;5.814;2022-12-18T02:52:03;81.57;;;34.38;;
59504;SDS011;45321;53.200;5.814;2022-12-18T02:57:08;82.38;;;35.55;;
59504;SDS011;45321;53.200;5.814;2022-12-18T03:02:30;84.07;;;37.03;;
59504;SDS011;45321;53.200;5.814;2022-12-18T03:05:03;92.43;;;36.10;;
59504;SDS011;45321;53.200;5.814;2022-12-18T03:07:35;87.10;;;37.28;;
59504;SDS011;45321;53.200;5.814;2022-12-18T03:10:05;83.85;;;34.88;;
59504;SDS011;45321;53.200;5.814;2022-12-18T03:12:35;81.40;;;34.63;;
59504;SDS011;45321;53.200;5.814;2022-12-18T03:15:06;82.03;;;34.50;;
59504;SDS011;45321;53.200;5.814;2022-12-18T03:17:33;82.45;;;34.63;;
59504;SDS011;45321;53.200;5.814;2022-12-18T03:20:02;86.65;;;35.15;;
59504;SDS011;45321;53.200;5.814;2022-12-18T03:22:32;83.93;;;35.97;;
59504;SDS011;45321;53.200;5.814;2022-12-18T03:25:00;85.40;;;35.10;;
59504;SDS011;45321;53.200;5.814;2022-12-18T03:27:30;81.35;;;33.85;;
59504;SDS011;45321;53.200;5.814;2022-12-18T03:32:29;85.60;;;34.42;;
59504;SDS011;45321;53.200;5.814;2022-12-18T03:34:59;85.93;;;34.90;;
59504;SDS011;45321;53.200;5.814;2022-12-18T03:37:28;84.30;;;35.58;;
59504;SDS011;45321;53.200;5.814;2022-12-18T03:39:53;79.53;;;34.85;;
59504;SDS011;45321;53.200;5.814;2022-12-18T03:47:27;86.25;;;34.47;;
59504;SDS011;45321;53.200;5.814;2022-12-18T03:52:53;90.00;;;35.08;;
59504;SDS011;45321;53.200;5.814;2022-12-18T03:55:32;87.90;;;36.08;;
59504;SDS011;45321;53.200;5.814;2022-12-18T03:57:59;87.72;;;37.33;;
59504;SDS011;45321;53.200;5.814;2022-12-18T04:00:28;91.95;;;34.72;;
59504;SDS011;45321;53.200;5.814;2022-12-18T04:02:56;89.43;;;36.90;;
59504;SDS011;45321;53.200;5.814;2022-12-18T04:05:25;94.05;;;36.78;;
59504;SDS011;45321;53.200;5.814;2022-12-18T04:07:53;88.60;;;36.88;;
59504;SDS011;45321;53.200;5.814;2022-12-18T04:10:21;94.53;;;37.55;;
59504;SDS011;45321;53.200;5.814;2022-12-18T04:12:47;82.07;;;34.20;;
59504;SDS011;45321;53.200;5.814;2022-12-18T04:15:13;86.03;;;35.38;;
59504;SDS011;45321;53.200;5.814;2022-12-18T04:17:39;87.78;;;36.00;;
59504;SDS011;45321;53.200;5.814;2022-12-18T04:20:12;88.82;;;37.25;;
59504;SDS011;45321;53.200;5.814;2022-12-18T04:22:37;81.20;;;35.05;;
59504;SDS011;45321;53.200;5.814;2022-12-18T04:25:03;91.95;;;36.83;;
59504;SDS011;45321;53.200;5.814;2022-12-18T04:27:29;88.25;;;36.28;;
59504;SDS011;45321;53.200;5.814;2022-12-18T04:29:55;87.70;;;34.58;;
59504;SDS011;45321;53.200;5.814;2022-12-18T04:32:21;93.55;;;38.60;;
59504;SDS011;45321;53.200;5.814;2022-12-18T04:34:46;85.57;;;36.58;;
59504;SDS011;45321;53.200;5.814;2022-12-18T04:37:12;87.20;;;37.03;;
59504;SDS011;45321;53.200;5.814;2022-12-18T04:39:38;87.18;;;36.08;;
59504;SDS011;45321;53.200;5.814;2022-12-18T04:42:04;87.70;;;36.50;;
59504;SDS011;45321;53.200;5.814;2022-12-18T04:44:30;93.35;;;37.80;;
59504;SDS011;45321;53.200;5.814;2022-12-18T04:46:55;91.10;;;37.90;;
59504;SDS011;45321;53.200;5.814;2022-12-18T04:49:23;94.28;;;37.97;;
59504;SDS011;45321;53.200;5.814;2022-12-18T04:51:49;96.60;;;37.42;;
59504;SDS011;45321;53.200;5.814;2022-12-18T04:54:15;86.60;;;37.30;;
59504;SDS011;45321;53.200;5.814;2022-12-18T04:56:40;92.65;;;36.35;;
59504;SDS011;45321;53.200;5.814;2022-12-18T04:59:06;80.90;;;35.92;;
59504;SDS011;45321;53.200;5.814;2022-12-18T05:01:32;86.18;;;35.88;;
59504;SDS011;45321;53.200;5.814;2022-12-18T05:04:01;88.13;;;37.15;;
59504;SDS011;45321;53.200;5.814;2022-12-18T05:06:27;84.75;;;36.90;;
59504;SDS011;45321;53.200;5.814;2022-12-18T05:08:53;81.38;;;35.58;;
59504;SDS011;45321;53.200;5.814;2022-12-18T05:11:19;85.05;;;36.15;;
59504;SDS011;45321;53.200;5.814;2022-12-18T05:13:46;86.80;;;37.10;;
59504;SDS011;45321;53.200;5.814;2022-12-18T05:16:12;79.15;;;35.03;;
59504;SDS011;45321;53.200;5.814;2022-12-18T05:18:38;82.78;;;35.03;;
59504;SDS011;45321;53.200;5.814;2022-12-18T05:21:04;80.35;;;34.90;;
59504;SDS011;45321;53.200;5.814;2022-12-18T05:23:30;75.57;;;34.75;;
59504;SDS011;45321;53.200;5.814;2022-12-18T05:26:02;77.50;;;34.40;;
59504;SDS011;45321;53.200;5.814;2022-12-18T05:28:30;81.70;;;34.35;;
59504;SDS011;45321;53.200;5.814;2022-12-18T05:30:58;76.15;;;33.83;;
59504;SDS011;45321;53.200;5.814;2022-12-18T05:33:25;78.82;;;34.38;;
59504;SDS011;45321;53.200;5.814;2022-12-18T05:35:58;85.03;;;35.97;;
59504;SDS011;45321;53.200;5.814;2022-12-18T05:38:25;79.70;;;34.50;;
59504;SDS011;45321;53.200;5.814;2022-12-18T05:40:52;87.72;;;34.70;;
59504;SDS011;45321;53.200;5.814;2022-12-18T05:43:18;81.43;;;34.08;;
59504;SDS011;45321;53.200;5.814;2022-12-18T05:45:45;72.55;;;32.00;;
59504;SDS011;45321;53.200;5.814;2022-12-18T05:48:11;72.65;;;32.88;;
59504;SDS011;45321;53.200;5.814;2022-12-18T05:50:38;76.65;;;33.10;;
59504;SDS011;45321;53.200;5.814;2022-12-18T05:53:05;69.88;;;32.30;;
59504;SDS011;45321;53.200;5.814;2022-12-18T05:55:35;69.35;;;32.88;;
59504;SDS011;45321;53.200;5.814;2022-12-18T05:58:02;73.05;;;32.72;;
59504;SDS011;45321;53.200;5.814;2022-12-18T06:00:29;76.13;;;34.78;;
59504;SDS011;45321;53.200;5.814;2022-12-18T06:02:55;71.93;;;32.90;;
59504;SDS011;45321;53.200;5.814;2022-12-18T06:05:21;69.80;;;31.27;;
59504;SDS011;45321;53.200;5.814;2022-12-18T06:07:47;75.88;;;32.72;;
59504;SDS011;45321;53.200;5.814;2022-12-18T06:10:12;76.40;;;34.45;;
59504;SDS011;45321;53.200;5.814;2022-12-18T06:12:38;70.70;;;31.48;;
59504;SDS011;45321;53.200;5.814;2022-12-18T06:15:04;74.70;;;33.88;;
59504;SDS011;45321;53.200;5.814;2022-12-18T06:17:31;68.07;;;30.58;;
59504;SDS011;45321;53.200;5.814;2022-12-18T06:19:57;77.07;;;31.02;;
59504;SDS011;45321;53.200;5.814;2022-12-18T06:22:23;71.03;;;31.35;;
59504;SDS011;45321;53.200;5.814;2022-12-18T06:24:50;67.80;;;30.90;;
59504;SDS011;45321;53.200;5.814;2022-12-18T06:27:16;68.20;;;30.55;;
59504;SDS011;45321;53.200;5.814;2022-12-18T06:29:42;64.10;;;30.02;;
59504;SDS011;45321;53.200;5.814;2022-12-18T06:32:07;65.28;;;30.55;;
59504;SDS011;45321;53.200;5.814;2022-12-18T06:34:33;61.67;;;29.20;;
59504;SDS011;45321;53.200;5.814;2022-12-18T06:37:01;61.17;;;28.30;;
59504;SDS011;45321;53.200;5.814;2022-12-18T06:39:27;65.13;;;29.23;;
59504;SDS011;45321;53.200;5.814;2022-12-18T06:41:53;57.10;;;27.63;;
59504;SDS011;45321;53.200;5.814;2022-12-18T06:44:19;61.72;;;28.92;;
59504;SDS011;45321;53.200;5.814;2022-12-18T06:46:45;57.13;;;28.35;;
59504;SDS011;45321;53.200;5.814;2022-12-18T06:49:11;59.88;;;27.58;;
59504;SDS011;45321;53.200;5.814;2022-12-18T06:51:36;62.75;;;27.77;;
59504;SDS011;45321;53.200;5.814;2022-12-18T06:54:02;56.85;;;27.98;;
59504;SDS011;45321;53.200;5.814;2022-12-18T06:56:28;57.88;;;29.05;;
59504;SDS011;45321;53.200;5.814;2022-12-18T06:58:54;63.00;;;29.35;;
59504;SDS011;45321;53.200;5.814;2022-12-18T07:01:20;57.95;;;27.65;;
59504;SDS011;45321;53.200;5.814;2022-12-18T07:03:46;56.53;;;26.65;;
59504;SDS011;45321;53.200;5.814;2022-12-18T07:06:17;56.58;;;25.75;;
59504;SDS011;45321;53.200;5.814;2022-12-18T07:08:45;54.95;;;26.65;;
59504;SDS011;45321;53.200;5.814;2022-12-18T07:11:12;54.22;;;24.90;;
59504;SDS011;45321;53.200;5.814;2022-12-18T07:13:37;53.17;;;25.05;;
59504;SDS011;45321;53.200;5.814;2022-12-18T07:16:13;56.72;;;26.17;;
59504;SDS011;45321;53.200;5.814;2022-12-18T07:18:41;51.40;;;24.92;;
59504;SDS011;45321;53.200;5.814;2022-12-18T07:21:08;52.63;;;26.10;;
59504;SDS011;45321;53.200;5.814;2022-12-18T07:23:38;52.80;;;25.00;;
59504;SDS011;45321;53.200;5.814;2022-12-18T07:26:05;54.88;;;25.20;;
59504;SDS011;45321;53.200;5.814;2022-12-18T07:28:32;52.55;;;26.85;;
59504;SDS011;45321;53.200;5.814;2022-12-18T07:31:02;50.10;;;25.13;;
59504;SDS011;45321;53.200;5.814;2022-12-18T07:33:29;52.05;;;26.20;;
59504;SDS011;45321;53.200;5.814;2022-12-18T07:35:54;54.90;;;26.27;;
59504;SDS011;45321;53.200;5.814;2022-12-18T07:38:20;56.15;;;25.05;;
59504;SDS011;45321;53.200;5.814;2022-12-18T07:40:46;56.80;;;25.38;;
59504;SDS011;45321;53.200;5.814;2022-12-18T07:43:12;53.88;;;26.48;;
59504;SDS011;45321;53.200;5.814;2022-12-18T07:45:38;51.00;;;25.08;;
59504;SDS011;45321;53.200;5.814;2022-12-18T07:48:03;50.72;;;24.55;;
59504;SDS011;45321;53.200;5.814;2022-12-18T07:50:29;51.38;;;24.40;;
59504;SDS011;45321;53.200;5.814;2022-12-18T07:52:55;46.25;;;23.30;;
59504;SDS011;45321;53.200;5.814;2022-12-18T07:55:21;44.90;;;22.92;;
59504;SDS011;45321;53.200;5.814;2022-12-18T07:57:47;55.35;;;24.17;;
59504;SDS011;45321;53.200;5.814;2022-12-18T08:00:13;46.17;;;22.15;;
59504;SDS011;45321;53.200;5.814;2022-12-18T08:02:39;48.35;;;24.15;;
59504;SDS011;45321;53.200;5.814;2022-12-18T08:05:05;45.30;;;23.08;;
59504;SDS011;45321;53.200;5.814;2022-12-18T08:07:31;43.00;;;21.27;;
59504;SDS011;45321;53.200;5.814;2022-12-18T08:09:56;42.63;;;21.23;;
59504;SDS011;45321;53.200;5.814;2022-12-18T08:12:22;43.20;;;22.13;;
59504;SDS011;45321;53.200;5.814;2022-12-18T08:14:47;45.47;;;22.92;;
59504;SDS011;45321;53.200;5.814;2022-12-18T08:17:13;40.92;;;22.38;;
59504;SDS011;45321;53.200;5.814;2022-12-18T08:19:39;44.35;;;20.52;;
59504;SDS011;45321;53.200;5.814;2022-12-18T08:22:04;41.47;;;22.08;;
59504;SDS011;45321;53.200;5.814;2022-12-18T08:24:30;39.45;;;21.50;;
59504;SDS011;45321;53.200;5.814;2022-12-18T08:26:56;47.17;;;22.15;;
59504;SDS011;45321;53.200;5.814;2022-12-18T08:29:22;41.15;;;20.08;;
59504;SDS011;45321;53.200;5.814;2022-12-18T08:31:48;40.30;;;20.27;;
59504;SDS011;45321;53.200;5.814;2022-12-18T08:34:14;40.65;;;20.55;;
59504;SDS011;45321;53.200;5.814;2022-12-18T08:36:39;41.42;;;20.30;;
59504;SDS011;45321;53.200;5.814;2022-12-18T08:39:05;41.58;;;21.23;;
59504;SDS011;45321;53.200;5.814;2022-12-18T08:41:31;35.42;;;19.50;;
59504;SDS011;45321;53.200;5.814;2022-12-18T08:43:57;34.17;;;19.60;;
59504;SDS011;45321;53.200;5.814;2022-12-18T08:46:41;39.97;;;20.92;;
59504;SDS011;45321;53.200;5.814;2022-12-18T08:49:08;40.60;;;20.48;;
59504;SDS011;45321;53.200;5.814;2022-12-18T08:51:35;38.63;;;20.90;;
59504;SDS011;45321;53.200;5.814;2022-12-18T08:54:01;39.65;;;21.15;;
59504;SDS011;45321;53.200;5.814;2022-12-18T08:56:30;37.92;;;20.35;;
59504;SDS011;45321;53.200;5.814;2022-12-18T08:58:56;39.58;;;21.17;;
59504;SDS011;45321;53.200;5.814;2022-12-18T09:01:22;40.38;;;20.05;;
59504;SDS011;45321;53.200;5.814;2022-12-18T09:03:49;37.88;;;22.15;;
59504;SDS011;45321;53.200;5.814;2022-12-18T09:06:16;35.58;;;20.35;;
59504;SDS011;45321;53.200;5.814;2022-12-18T09:08:43;38.97;;;19.17;;
59504;SDS011;45321;53.200;5.814;2022-12-18T09:11:13;35.15;;;19.27;;
59504;SDS011;45321;53.200;5.814;2022-12-18T09:13:43;42.13;;;20.25;;
59504;SDS011;45321;53.200;5.814;2022-12-18T09:16:09;34.28;;;19.55;;
59504;SDS011;45321;53.200;5.814;2022-12-18T09:18:35;38.42;;;19.25;;
59504;SDS011;45321;53.200;5.814;2022-12-18T09:21:06;41.08;;;20.40;;
59504;SDS011;45321;53.200;5.814;2022-12-18T09:23:42;33.10;;;18.90;;
59504;SDS011;45321;53.200;5.814;2022-12-18T09:26:08;32.08;;;18.80;;
59504;SDS011;45321;53.200;5.814;2022-12-18T09:28:34;36.35;;;19.50;;
59504;SDS011;45321;53.200;5.814;2022-12-18T09:31:03;35.88;;;19.08;;
59504;SDS011;45321;53.200;5.814;2022-12-18T09:33:31;31.23;;;18.33;;
59504;SDS011;45321;53.200;5.814;2022-12-18T09:35:57;34.45;;;20.17;;
59504;SDS011;45321;53.200;5.814;2022-12-18T09:38:27;33.50;;;19.13;;
59504;SDS011;45321;53.200;5.814;2022-12-18T09:40:53;36.85;;;20.42;;
59504;SDS011;45321;53.200;5.814;2022-12-18T09:43:43;36.90;;;19.83;;
59504;SDS011;45321;53.200;5.814;2022-12-18T09:46:19;37.95;;;18.88;;
59504;SDS011;45321;53.200;5.814;2022-12-18T09:49:04;35.78;;;18.98;;
59504;SDS011;45321;53.200;5.814;2022-12-18T09:51:47;31.83;;;18.08;;
59504;SDS011;45321;53.200;5.814;2022-12-18T09:54:35;32.42;;;17.67;;
59504;SDS011;45321;53.200;5.814;2022-12-18T09:57:11;30.38;;;17.15;;
59504;SDS011;45321;53.200;5.814;2022-12-18T09:59:40;28.88;;;16.77;;
59504;SDS011;45321;53.200;5.814;2022-12-18T10:02:16;31.33;;;16.27;;
59504;SDS011;45321;53.200;5.814;2022-12-18T10:04:44;27.00;;;16.05;;
59504;SDS011;45321;53.200;5.814;2022-12-18T10:10:13;26.87;;;15.07;;
59504;SDS011;45321;53.200;5.814;2022-12-18T10:21:03;22.95;;;14.18;;
59504;SDS011;45321;53.200;5.814;2022-12-18T10:23:51;23.08;;;14.63;;
59504;SDS011;45321;53.200;5.814;2022-12-18T10:26:22;24.65;;;14.25;;
59504;SDS011;45321;53.200;5.814;2022-12-18T10:28:50;21.65;;;13.73;;
59504;SDS011;45321;53.200;5.814;2022-12-18T10:31:19;24.65;;;14.25;;
59504;SDS011;45321;53.200;5.814;2022-12-18T10:33:47;19.67;;;12.35;;
59504;SDS011;45321;53.200;5.814;2022-12-18T10:36:13;21.23;;;13.07;;
59504;SDS011;45321;53.200;5.814;2022-12-18T10:38:39;21.10;;;12.80;;
59504;SDS011;45321;53.200;5.814;2022-12-18T10:41:06;21.83;;;12.68;;
59504;SDS011;45321;53.200;5.814;2022-12-18T10:43:48;24.20;;;14.45;;
59504;SDS011;45321;53.200;5.814;2022-12-18T10:46:33;21.33;;;13.00;;
59504;SDS011;45321;53.200;5.814;2022-12-18T10:49:00;20.70;;;12.35;;
59504;SDS011;45321;53.200;5.814;2022-12-18T10:56:26;17.75;;;12.05;;
59504;SDS011;45321;53.200;5.814;2022-12-18T10:58:58;18.17;;;11.52;;
59504;SDS011;45321;53.200;5.814;2022-12-18T11:01:45;17.20;;;11.60;;
59504;SDS011;45321;53.200;5.814;2022-12-18T11:09:44;17.25;;;11.80;;
59504;SDS011;45321;53.200;5.814;2022-12-18T11:12:24;17.45;;;10.77;;
59504;SDS011;45321;53.200;5.814;2022-12-18T11:14:53;15.27;;;10.38;;
59504;SDS011;45321;53.200;5.814;2022-12-18T11:17:22;16.48;;;10.30;;
59504;SDS011;45321;53.200;5.814;2022-12-18T11:19:59;13.02;;;9.40;;
59504;SDS011;45321;53.200;5.814;2022-12-18T11:22:55;20.85;;;10.60;;
59504;SDS011;45321;53.200;5.814;2022-12-18T11:25:23;14.00;;;9.82;;
59504;SDS011;45321;53.200;5.814;2022-12-18T11:27:51;16.55;;;10.00;;
59504;SDS011;45321;53.200;5.814;2022-12-18T11:32:45;15.77;;;9.63;;
59504;SDS011;45321;53.200;5.814;2022-12-18T11:35:37;14.15;;;8.98;;
59504;SDS011;45321;53.200;5.814;2022-12-18T11:40:56;14.88;;;9.55;;
59504;SDS011;45321;53.200;5.814;2022-12-18T11:43:48;15.02;;;9.05;;
59504;SDS011;45321;53.200;5.814;2022-12-18T11:46:26;15.60;;;10.18;;
59504;SDS011;45321;53.200;5.814;2022-12-18T11:49:01;15.73;;;9.70;;
59504;SDS011;45321;53.200;5.814;2022-12-18T11:51:41;13.77;;;9.60;;
59504;SDS011;45321;53.200;5.814;2022-12-18T11:54:27;14.48;;;9.32;;
59504;SDS011;45321;53.200;5.814;2022-12-18T11:59:55;15.30;;;9.45;;
59504;SDS011;45321;53.200;5.814;2022-12-18T12:07:47;13.80;;;9.02;;
59504;SDS011;45321;53.200;5.814;2022-12-18T12:13:48;13.90;;;9.38;;
59504;SDS011;45321;53.200;5.814;2022-12-18T12:16:41;16.27;;;10.38;;
59504;SDS011;45321;53.200;5.814;2022-12-18T12:21:58;15.23;;;9.85;;
59504;SDS011;45321;53.200;5.814;2022-12-18T12:40:14;12.75;;;8.57;;
59504;SDS011;45321;53.200;5.814;2022-12-18T12:42:48;14.35;;;9.25;;
59504;SDS011;45321;53.200;5.814;2022-12-18T12:45:54;14.07;;;8.60;;
59504;SDS011;45321;53.200;5.814;2022-12-18T12:51:04;13.35;;;8.73;;
59504;SDS011;45321;53.200;5.814;2022-12-18T12:53:38;12.63;;;8.40;;
59504;SDS011;45321;53.200;5.814;2022-12-18T12:56:08;13.30;;;8.52;;
59504;SDS011;45321;53.200;5.814;2022-12-18T12:58:49;12.65;;;8.60;;
59504;SDS011;45321;53.200;5.814;2022-12-18T13:01:28;13.95;;;8.88;;
59504;SDS011;45321;53.200;5.814;2022-12-18T13:04:36;12.57;;;8.00;;
59504;SDS011;45321;53.200;5.814;2022-12-18T13:07:16;14.40;;;9.48;;
59504;SDS011;45321;53.200;5.814;2022-12-18T13:12:58;12.40;;;8.68;;
59504;SDS011;45321;53.200;5.814;2022-12-18T13:18:18;12.55;;;8.52;;
59504;SDS011;45321;53.200;5.814;2022-12-18T13:20:49;13.88;;;9.32;;
59504;SDS011;45321;53.200;5.814;2022-12-18T13:25:51;14.02;;;8.80;;
59504;SDS011;45321;53.200;5.814;2022-12-18T13:31:12;12.68;;;7.97;;
59504;SDS011;45321;53.200;5.814;2022-12-18T13:33:46;12.77;;;8.45;;
59504;SDS011;45321;53.200;5.814;2022-12-18T13:36:16;12.65;;;8.90;;
59504;SDS011;45321;53.200;5.814;2022-12-18T13:41:46;13.27;;;7.78;;
59504;SDS011;45321;53.200;5.814;2022-12-18T13:47:00;11.90;;;7.80;;
59504;SDS011;45321;53.200;5.814;2022-12-18T13:49:41;12.07;;;7.75;;
59504;SDS011;45321;53.200;5.814;2022-12-18T13:52:16;10.80;;;7.60;;
59504;SDS011;45321;53.200;5.814;2022-12-18T13:54:52;13.27;;;8.20;;
59504;SDS011;45321;53.200;5.814;2022-12-18T13:57:27;11.45;;;8.15;;
59504;SDS011;45321;53.200;5.814;2022-12-18T13:59:55;11.93;;;7.65;;
59504;SDS011;45321;53.200;5.814;2022-12-18T14:02:26;10.50;;;7.43;;
59504;SDS011;45321;53.200;5.814;2022-12-18T14:04:53;11.70;;;7.97;;
59504;SDS011;45321;53.200;5.814;2022-12-18T14:07:24;10.40;;;7.47;;
59504;SDS011;45321;53.200;5.814;2022-12-18T14:09:53;10.13;;;6.78;;
59504;SDS011;45321;53.200;5.814;2022-12-18T14:12:22;11.57;;;7.68;;
59504;SDS011;45321;53.200;5.814;2022-12-18T14:17:46;12.65;;;7.18;;
59504;SDS011;45321;53.200;5.814;2022-12-18T14:20:15;11.20;;;7.15;;
59504;SDS011;45321;53.200;5.814;2022-12-18T14:22:45;11.38;;;10.15;;
59504;SDS011;45321;53.200;5.814;2022-12-18T14:27:53;11.70;;;7.65;;
59504;SDS011;45321;53.200;5.814;2022-12-18T14:30:40;11.45;;;7.03;;
59504;SDS011;45321;53.200;5.814;2022-12-18T14:33:14;10.48;;;6.57;;
59504;SDS011;45321;53.200;5.814;2022-12-18T14:35:53;25.05;;;15.63;;
59504;SDS011;45321;53.200;5.814;2022-12-18T14:43:26;10.25;;;6.47;;
59504;SDS011;45321;53.200;5.814;2022-12-18T14:45:54;11.48;;;6.97;;
59504;SDS011;45321;53.200;5.814;2022-12-18T14:48:22;10.70;;;7.88;;
59504;SDS011;45321;53.200;5.814;2022-12-18T14:51:00;13.00;;;8.27;;
59504;SDS011;45321;53.200;5.814;2022-12-18T14:55:59;11.10;;;6.90;;
59504;SDS011;45321;53.200;5.814;2022-12-18T14:58:26;9.23;;;6.70;;
59504;SDS011;45321;53.200;5.814;2022-12-18T15:00:51;11.27;;;8.90;;
59504;SDS011;45321;53.200;5.814;2022-12-18T15:03:18;10.25;;;7.03;;
59504;SDS011;45321;53.200;5.814;2022-12-18T15:05:46;12.45;;;7.13;;
59504;SDS011;45321;53.200;5.814;2022-12-18T15:08:29;11.65;;;6.78;;
59504;SDS011;45321;53.200;5.814;2022-12-18T15:11:01;9.30;;;6.38;;
59504;SDS011;45321;53.200;5.814;2022-12-18T15:13:27;11.73;;;6.65;;
59504;SDS011;45321;53.200;5.814;2022-12-18T15:15:53;11.32;;;7.55;;
59504;SDS011;45321;53.200;5.814;2022-12-18T15:18:29;9.02;;;6.40;;
59504;SDS011;45321;53.200;5.814;2022-12-18T15:21:07;9.23;;;6.68;;
59504;SDS011;45321;53.200;5.814;2022-12-18T15:26:13;10.80;;;6.43;;
59504;SDS011;45321;53.200;5.814;2022-12-18T15:28:50;10.20;;;6.70;;
59504;SDS011;45321;53.200;5.814;2022-12-18T15:31:24;9.80;;;6.85;;
59504;SDS011;45321;53.200;5.814;2022-12-18T15:34:01;13.82;;;9.13;;
59504;SDS011;45321;53.200;5.814;2022-12-18T15:36:49;23.45;;;14.00;;
59504;SDS011;45321;53.200;5.814;2022-12-18T15:39:16;12.35;;;8.05;;
59504;SDS011;45321;53.200;5.814;2022-12-18T15:41:41;22.85;;;14.50;;
59504;SDS011;45321;53.200;5.814;2022-12-18T15:46:53;13.02;;;8.63;;
59504;SDS011;45321;53.200;5.814;2022-12-18T15:49:19;8.65;;;6.68;;
59504;SDS011;45321;53.200;5.814;2022-12-18T15:51:51;19.83;;;11.15;;
59504;SDS011;45321;53.200;5.814;2022-12-18T15:54:19;13.27;;;7.60;;
59504;SDS011;45321;53.200;5.814;2022-12-18T15:57:04;15.27;;;9.80;;
59504;SDS011;45321;53.200;5.814;2022-12-18T15:59:48;11.63;;;7.55;;
59504;SDS011;45321;53.200;5.814;2022-12-18T16:02:16;11.88;;;7.03;;
59504;SDS011;45321;53.200;5.814;2022-12-18T16:04:43;18.50;;;10.77;;
59504;SDS011;45321;53.200;5.814;2022-12-18T16:07:08;10.10;;;6.97;;
59504;SDS011;45321;53.200;5.814;2022-12-18T16:09:35;11.68;;;7.45;;
59504;SDS011;45321;53.200;5.814;2022-12-18T16:12:01;10.10;;;7.60;;
59504;SDS011;45321;53.200;5.814;2022-12-18T16:14:28;29.35;;;15.35;;
59504;SDS011;45321;53.200;5.814;2022-12-18T16:16:56;12.52;;;7.43;;
59504;SDS011;45321;53.200;5.814;2022-12-18T16:19:33;14.25;;;9.48;;
59504;SDS011;45321;53.200;5.814;2022-12-18T16:21:59;10.13;;;6.68;;
59504;SDS011;45321;53.200;5.814;2022-12-18T16:24:26;13.68;;;10.60;;
59504;SDS011;45321;53.200;5.814;2022-12-18T16:26:56;17.50;;;11.57;;
59504;SDS011;45321;53.200;5.814;2022-12-18T16:29:24;15.07;;;11.60;;
59504;SDS011;45321;53.200;5.814;2022-12-18T16:31:59;15.80;;;12.35;;
59504;SDS011;45321;53.200;5.814;2022-12-18T16:34:26;13.32;;;9.18;;
59504;SDS011;45321;53.200;5.814;2022-12-18T16:36:58;12.38;;;8.45;;
59504;SDS011;45321;53.200;5.814;2022-12-18T16:39:25;14.57;;;9.63;;
59504;SDS011;45321;53.200;5.814;2022-12-18T16:41:52;15.50;;;10.43;;
59504;SDS011;45321;53.200;5.814;2022-12-18T16:44:18;22.02;;;12.70;;
59504;SDS011;45321;53.200;5.814;2022-12-18T16:46:45;18.50;;;13.88;;
59504;SDS011;45321;53.200;5.814;2022-12-18T16:49:12;16.15;;;10.10;;
59504;SDS011;45321;53.200;5.814;2022-12-18T16:51:38;13.50;;;7.75;;
59504;SDS011;45321;53.200;5.814;2022-12-18T16:54:04;16.17;;;12.82;;